createdAt,value
2022-11-29T00:01:38.864Z,101313.98
2022-11-29T00:04:07.118Z,101315.21
2022-11-29T00:06:36.177Z,101311.08
2022-11-29T00:09:07.611Z,101311.96
2022-11-29T00:11:56.137Z,101310.82
2022-11-29T00:14:26.114Z,101308.69
2022-11-29T00:16:56.800Z,101304.58
2022-11-29T00:19:24.899Z,101302.93
2022-11-29T00:21:52.712Z,101297.89
2022-11-29T00:24:20.716Z,101302.94
2022-11-29T00:26:48.926Z,101303.27
2022-11-29T00:29:17.234Z,101305.60
2022-11-29T00:31:45.297Z,101306.77
2022-11-29T00:34:13.197Z,101298.38
2022-11-29T00:36:41.052Z,101302.58
2022-11-29T00:39:12.044Z,101303.91
2022-11-29T00:41:40.379Z,101298.95
2022-11-29T00:44:09.316Z,101303.86
2022-11-29T00:46:37.830Z,101303.49
2022-11-29T00:49:05.725Z,101302.25
2022-11-29T00:51:33.546Z,101308.02
2022-11-29T00:54:01.474Z,101303.21
2022-11-29T00:56:29.877Z,101303.07
2022-11-29T00:58:57.673Z,101300.67
2022-11-29T01:01:25.764Z,101298.02
2022-11-29T01:03:53.665Z,101299.28
2022-11-29T01:06:21.547Z,101302.92
2022-11-29T01:08:49.684Z,101302.95
2022-11-29T01:11:23.872Z,101302.06
2022-11-29T01:13:56.064Z,101305.83
2022-11-29T01:16:24.751Z,101304.40
2022-11-29T01:18:52.625Z,101303.95
2022-11-29T01:21:24.572Z,101307.29
2022-11-29T01:23:53.259Z,101301.22
2022-11-29T01:26:24.094Z,101303.02
2022-11-29T01:28:53.982Z,101302.98
2022-11-29T01:31:33.393Z,101304.25
2022-11-29T01:34:02.491Z,101303.02
2022-11-29T01:36:30.778Z,101300.04
2022-11-29T01:39:00.792Z,101299.27
2022-11-29T01:41:32.046Z,101298.08
2022-11-29T01:44:12.084Z,101299.55
2022-11-29T01:46:42.677Z,101298.45
2022-11-29T01:49:15.344Z,101297.73
2022-11-29T01:51:48.483Z,101295.81
2022-11-29T01:54:16.367Z,101297.17
2022-11-29T01:56:47.456Z,101299.70
2022-11-29T01:59:19.122Z,101294.41
2022-11-29T02:01:46.998Z,101297.33
2022-11-29T02:04:15.535Z,101292.52
2022-11-29T02:06:43.518Z,101291.43
2022-11-29T02:09:20.085Z,101291.38
2022-11-29T02:12:38.983Z,101284.27
2022-11-29T02:15:18.308Z,101292.96
2022-11-29T02:18:03.160Z,101293.08
2022-11-29T02:20:49.349Z,101290.78
2022-11-29T02:23:54.768Z,101288.94
2022-11-29T02:27:00.207Z,101288.62
2022-11-29T02:30:01.856Z,101290.58
2022-11-29T02:33:14.283Z,101289.42
2022-11-29T02:36:15.222Z,101294.91
2022-11-29T02:39:01.493Z,101296.53
2022-11-29T02:41:57.668Z,101303.11
2022-11-29T02:44:38.424Z,101301.30
2022-11-29T02:47:50.509Z,101304.09
2022-11-29T02:50:49.008Z,101303.39
2022-11-29T02:53:41.740Z,101305.81
2022-11-29T02:56:20.658Z,101309.05
2022-11-29T02:59:14.123Z,101307.54
2022-11-29T03:01:53.224Z,101307.44
2022-11-29T03:04:45.554Z,101313.30
2022-11-29T03:07:39.103Z,101312.58
2022-11-29T03:10:44.513Z,101316.66
2022-11-29T03:13:22.584Z,101312.67
2022-11-29T03:16:11.644Z,101312.27
2022-11-29T03:19:07.416Z,101319.10
2022-11-29T03:21:45.790Z,101323.98
2022-11-29T03:24:24.347Z,101321.20
2022-11-29T03:26:59.934Z,101319.90
2022-11-29T03:29:36.046Z,101323.05
2022-11-29T03:32:13.985Z,101325.48
2022-11-29T03:35:06.677Z,101325.13
2022-11-29T03:37:45.537Z,101326.81
2022-11-29T03:40:19.505Z,101325.36
2022-11-29T03:42:58.039Z,101327.14
2022-11-29T03:45:34.814Z,101327.52
2022-11-29T03:48:17.201Z,101326.88
2022-11-29T03:50:52.518Z,101325.14
2022-11-29T03:53:31.815Z,101325.98
2022-11-29T03:56:04.268Z,101327.88
2022-11-29T03:58:57.472Z,101327.91
2022-11-29T04:01:28.317Z,101332.54
2022-11-29T04:04:20.696Z,101332.73
2022-11-29T04:07:00.949Z,101334.99
2022-11-29T04:09:50.255Z,101334.39
2022-11-29T04:13:03.101Z,101336.90
2022-11-29T04:15:55.135Z,101344.85
2022-11-29T04:18:44.837Z,101346.00
2022-11-29T04:21:40.259Z,101351.33
2022-11-29T04:24:26.318Z,101346.43
2022-11-29T04:27:15.740Z,101352.20
2022-11-29T04:29:55.486Z,101352.52
2022-11-29T04:33:00.438Z,101358.92
2022-11-29T04:35:55.102Z,101359.54
2022-11-29T04:38:37.882Z,101357.06
2022-11-29T04:41:23.845Z,101358.58
2022-11-29T04:43:51.675Z,101355.88
2022-11-29T04:46:22.590Z,101358.13
2022-11-29T04:49:11.179Z,101360.48
2022-11-29T04:52:07.187Z,101356.70
2022-11-29T04:54:43.216Z,101363.73
2022-11-29T04:57:52.344Z,101367.95
2022-11-29T05:00:22.777Z,101370.73
2022-11-29T05:03:15.493Z,101373.23
2022-11-29T05:05:53.250Z,101374.92
2022-11-29T05:08:29.078Z,101372.23
2022-11-29T05:11:09.012Z,101374.46
2022-11-29T05:14:05.030Z,101375.07
2022-11-29T05:16:41.916Z,101380.08
2022-11-29T05:19:25.193Z,101381.99
2022-11-29T05:22:11.610Z,101383.06
2022-11-29T05:24:45.670Z,101384.69
2022-11-29T05:27:47.027Z,101383.27
2022-11-29T05:30:18.086Z,101386.54
2022-11-29T05:33:23.559Z,101386.97
2022-11-29T05:35:54.145Z,101392.10
2022-11-29T05:38:38.617Z,101394.05
2022-11-29T05:41:23.666Z,101393.85
2022-11-29T05:44:04.078Z,101396.57
2022-11-29T05:46:44.393Z,101399.43
2022-11-29T05:49:24.371Z,101405.02
2022-11-29T05:52:25.119Z,101407.13
2022-11-29T05:55:15.192Z,101407.66
2022-11-29T05:57:52.510Z,101413.23
2022-11-29T06:00:21.324Z,101411.40
2022-11-29T06:03:03.714Z,101418.33
2022-11-29T06:05:40.303Z,101420.46
2022-11-29T06:08:46.467Z,101424.77
2022-11-29T06:11:22.016Z,101425.48
2022-11-29T06:14:01.118Z,101428.52
2022-11-29T06:16:57.351Z,101430.72
2022-11-29T06:19:49.134Z,101431.45
2022-11-29T06:22:27.056Z,101434.73
2022-11-29T06:25:40.993Z,101436.15
2022-11-29T06:28:28.974Z,101440.70
2022-11-29T06:31:03.685Z,101444.91
2022-11-29T06:33:57.907Z,101445.77
2022-11-29T06:36:35.393Z,101448.02
2022-11-29T06:39:03.911Z,101448.39
2022-11-29T06:41:32.414Z,101452.44
2022-11-29T06:44:00.962Z,101452.70
2022-11-29T06:46:42.455Z,101460.86
2022-11-29T06:49:27.021Z,101456.20
2022-11-29T06:52:22.056Z,101457.60
2022-11-29T06:55:14.741Z,101460.27
2022-11-29T06:58:14.231Z,101456.75
2022-11-29T07:00:59.275Z,101458.48
2022-11-29T07:03:51.985Z,101458.59
2022-11-29T07:06:25.932Z,101460.06
2022-11-29T07:08:58.810Z,101462.20
2022-11-29T07:11:28.503Z,101465.16
2022-11-29T07:13:56.638Z,101467.21
2022-11-29T07:16:37.473Z,101467.27
2022-11-29T07:19:20.252Z,101468.02
2022-11-29T07:21:55.109Z,101470.67
2022-11-29T07:24:38.890Z,101472.05
2022-11-29T07:27:17.440Z,101476.37
2022-11-29T07:30:05.136Z,101477.31
2022-11-29T07:33:00.877Z,101478.79
2022-11-29T07:35:43.077Z,101482.32
2022-11-29T07:38:21.818Z,101484.20
2022-11-29T07:41:15.655Z,101491.56
2022-11-29T07:44:03.278Z,101494.81
2022-11-29T07:46:31.517Z,101493.27
2022-11-29T07:48:59.638Z,101496.48
2022-11-29T07:51:27.559Z,101497.52
2022-11-29T07:53:55.354Z,101498.16
2022-11-29T07:56:23.225Z,101496.62
2022-11-29T07:58:53.333Z,101497.73
2022-11-29T08:01:23.697Z,101501.35
2022-11-29T08:03:51.793Z,101496.09
2022-11-29T08:06:26.497Z,101503.45
2022-11-29T08:08:57.817Z,101505.74
2022-11-29T08:11:26.399Z,101507.20
2022-11-29T08:13:59.352Z,101506.22
2022-11-29T08:16:27.709Z,101505.67
2022-11-29T08:18:55.878Z,101508.23
2022-11-29T08:21:23.888Z,101511.73
2022-11-29T08:23:52.164Z,101513.13
2022-11-29T08:26:21.127Z,101513.98
2022-11-29T08:28:52.957Z,101515.16
2022-11-29T08:31:21.602Z,101517.66
2022-11-29T08:33:49.754Z,101517.91
2022-11-29T08:36:21.273Z,101516.86
2022-11-29T08:38:49.174Z,101517.77
2022-11-29T08:41:17.867Z,101518.16
2022-11-29T08:43:46.207Z,101518.25
2022-11-29T08:46:18.503Z,101519.88
2022-11-29T08:48:48.248Z,101518.10
2022-11-29T08:51:16.198Z,101513.73
2022-11-29T08:53:51.696Z,101521.65
2022-11-29T08:57:10.043Z,101522.42
2022-11-29T08:59:09.277Z,101522.20
2022-11-29T09:01:37.479Z,101531.09
2022-11-29T09:04:07.755Z,101527.72
2022-11-29T09:06:44.466Z,101529.41
2022-11-29T09:09:12.845Z,101533.17
2022-11-29T09:11:43.081Z,101535.70
2022-11-29T09:14:16.865Z,101537.88
2022-11-29T09:16:45.101Z,101540.13
2022-11-29T09:19:14.608Z,101535.05
2022-11-29T09:21:42.733Z,101534.90
2022-11-29T09:24:11.287Z,101537.41
2022-11-29T09:26:41.540Z,101537.19
2022-11-29T09:29:11.904Z,101542.39
2022-11-29T09:31:40.647Z,101542.73
2022-11-29T09:34:12.829Z,101542.55
2022-11-29T09:36:41.326Z,101541.64
2022-11-29T09:39:10.403Z,101544.23
2022-11-29T09:42:06.313Z,101543.29
2022-11-29T09:44:41.658Z,101544.04
2022-11-29T09:47:16.151Z,101543.20
2022-11-29T09:50:20.200Z,101540.45
2022-11-29T09:53:07.049Z,101540.92
2022-11-29T09:55:40.215Z,101543.20
2022-11-29T09:58:14.147Z,101538.44
2022-11-29T10:00:56.474Z,101539.94
2022-11-29T10:03:41.322Z,101539.61
2022-11-29T10:06:28.309Z,101544.13
2022-11-29T10:09:08.408Z,101543.11
2022-11-29T10:11:48.574Z,101543.21
2022-11-29T10:14:24.957Z,101546.23
2022-11-29T10:17:04.080Z,101544.63
2022-11-29T10:19:41.203Z,101542.84
2022-11-29T10:22:25.028Z,101546.40
2022-11-29T10:24:59.221Z,101545.70
2022-11-29T10:27:29.658Z,101549.17
2022-11-29T10:30:01.024Z,101546.69
2022-11-29T10:32:32.140Z,101541.94
2022-11-29T10:35:01.611Z,101546.13
2022-11-29T10:37:32.788Z,101549.80
2022-11-29T10:40:07.143Z,101549.03
2022-11-29T10:42:50.279Z,101553.61
2022-11-29T10:45:39.970Z,101555.60
2022-11-29T10:48:13.759Z,101553.81
2022-11-29T10:50:44.465Z,101557.25
2022-11-29T10:53:25.326Z,101559.50
2022-11-29T10:55:56.222Z,101561.40
2022-11-29T10:58:29.013Z,101557.75
2022-11-29T11:01:09.955Z,101561.11
2022-11-29T11:03:43.630Z,101557.29
2022-11-29T11:06:49.852Z,101561.10
2022-11-29T11:09:36.416Z,101557.69
2022-11-29T11:12:19.790Z,101559.05
2022-11-29T11:14:51.469Z,101557.55
2022-11-29T11:17:26.710Z,101554.30
2022-11-29T11:20:18.930Z,101552.13
2022-11-29T11:23:06.033Z,101548.52
2022-11-29T11:25:39.864Z,101545.88
2022-11-29T11:28:20.486Z,101552.33
2022-11-29T11:31:00.300Z,101551.88
2022-11-29T11:33:46.577Z,101553.79
2022-11-29T11:36:25.737Z,101556.79
2022-11-29T11:38:58.595Z,101557.54
2022-11-29T11:41:55.342Z,101557.55
2022-11-29T11:44:48.878Z,101555.92
2022-11-29T11:47:27.711Z,101560.10
2022-11-29T11:50:04.862Z,101561.21
2022-11-29T11:52:49.896Z,101560.05
2022-11-29T11:55:21.764Z,101560.14
2022-11-29T11:58:09.887Z,101562.13
2022-11-29T12:01:05.698Z,101563.65
2022-11-29T12:03:53.271Z,101567.42
2022-11-29T12:06:48.295Z,101568.20
2022-11-29T12:09:42.203Z,101569.98
2022-11-29T12:12:28.039Z,101571.41
2022-11-29T12:15:17.439Z,101570.67
2022-11-29T12:18:00.871Z,101574.04
2022-11-29T12:20:56.088Z,101575.16
2022-11-29T12:23:46.275Z,101573.02
2022-11-29T12:26:54.809Z,101577.99
2022-11-29T12:29:14.676Z,101573.73
2022-11-29T12:32:36.017Z,101573.80
2022-11-29T12:35:32.855Z,101574.42
2022-11-29T12:38:29.538Z,101577.38
2022-11-29T12:41:21.558Z,101580.33
2022-11-29T12:44:14.914Z,101585.95
2022-11-29T12:47:02.149Z,101587.46
2022-11-29T12:50:02.058Z,101589.41
2022-11-29T12:52:48.939Z,101588.90
2022-11-29T12:55:29.015Z,101595.56
2022-11-29T12:58:03.433Z,101601.06
2022-11-29T13:00:46.348Z,101600.44
2022-11-29T13:03:37.746Z,101593.48
2022-11-29T13:06:16.077Z,101599.52
2022-11-29T13:09:13.176Z,101599.63
2022-11-29T13:12:05.704Z,101603.77
2022-11-29T13:14:44.217Z,101603.95
2022-11-29T13:17:44.743Z,101607.40
2022-11-29T13:20:39.362Z,101607.27
2022-11-29T13:23:45.911Z,101611.03
2022-11-29T13:26:22.822Z,101612.08
2022-11-29T13:29:00.177Z,101620.34
2022-11-29T13:31:29.059Z,101622.71
2022-11-29T13:34:02.092Z,101623.75
2022-11-29T13:37:06.310Z,101626.05
2022-11-29T13:40:11.859Z,101633.05
2022-11-29T13:42:51.501Z,101633.27
2022-11-29T13:45:44.062Z,101637.25
2022-11-29T13:48:50.751Z,101637.96
2022-11-29T13:51:34.619Z,101646.14
2022-11-29T13:54:26.631Z,101648.48
2022-11-29T13:57:10.907Z,101652.94
2022-11-29T13:59:45.892Z,101652.18
2022-11-29T14:02:29.152Z,101651.71
2022-11-29T14:04:57.713Z,101647.67
2022-11-29T14:07:26.090Z,101650.16
2022-11-29T14:10:28.343Z,101649.84
2022-11-29T14:12:59.870Z,101654.98
2022-11-29T14:15:32.286Z,101657.87
2022-11-29T14:18:03.346Z,101659.63
2022-11-29T14:20:32.510Z,101656.73
2022-11-29T14:23:06.924Z,101662.55
2022-11-29T14:25:51.813Z,101664.05
2022-11-29T14:28:21.934Z,101663.44
2022-11-29T14:30:50.958Z,101664.55
2022-11-29T14:33:32.093Z,101667.14
2022-11-29T14:36:14.993Z,101670.13
2022-11-29T14:39:20.558Z,101674.14
2022-11-29T14:42:14.723Z,101676.77
2022-11-29T14:44:47.294Z,101675.33
2022-11-29T14:47:24.221Z,101674.34
2022-11-29T14:49:55.650Z,101673.30
2022-11-29T14:52:28.965Z,101679.92
2022-11-29T14:55:03.157Z,101680.37
2022-11-29T14:57:50.295Z,101679.20
2022-11-29T15:00:29.909Z,101681.67
2022-11-29T15:03:10.542Z,101680.53
2022-11-29T15:05:44.317Z,101680.52
2022-11-29T15:08:41.373Z,101680.84
2022-11-29T15:11:21.999Z,101685.11
2022-11-29T15:14:04.412Z,101685.41
2022-11-29T15:16:35.636Z,101682.73
2022-11-29T15:19:16.291Z,101684.75
2022-11-29T15:21:55.164Z,101690.99
2022-11-29T15:24:28.145Z,101691.97
2022-11-29T15:27:05.210Z,101693.80
2022-11-29T15:29:34.064Z,101695.69
2022-11-29T15:32:05.931Z,101693.95
2022-11-29T15:34:40.126Z,101697.63
2022-11-29T15:37:22.309Z,101697.55
2022-11-29T15:40:12.325Z,101698.96
2022-11-29T15:42:54.099Z,101699.52
2022-11-29T15:45:27.333Z,101698.73
2022-11-29T15:48:10.448Z,101700.85
2022-11-29T15:50:44.298Z,101700.15
2022-11-29T15:53:21.228Z,101697.91
2022-11-29T15:55:54.789Z,101697.73
2022-11-29T15:58:25.708Z,101702.88
2022-11-29T16:00:54.931Z,101704.45
2022-11-29T16:03:27.112Z,101706.70
2022-11-29T16:06:15.361Z,101709.92
2022-11-29T16:08:43.933Z,101709.98
2022-11-29T16:11:22.996Z,101706.22
2022-11-29T16:14:19.230Z,101710.69
2022-11-29T16:16:50.252Z,101710.23
2022-11-29T16:19:35.057Z,101713.35
2022-11-29T16:22:17.220Z,101719.10
2022-11-29T16:25:15.162Z,101721.23
2022-11-29T16:27:44.171Z,101719.98
2022-11-29T16:30:24.578Z,101723.19
2022-11-29T16:32:57.021Z,101727.65
2022-11-29T16:35:29.315Z,101727.96
2022-11-29T16:37:57.700Z,101733.07
2022-11-29T16:40:30.999Z,101731.77
2022-11-29T16:43:19.801Z,101733.55
2022-11-29T16:45:48.090Z,101733.24
2022-11-29T16:48:22.950Z,101736.39
2022-11-29T16:51:09.590Z,101737.59
2022-11-29T16:53:41.716Z,101737.23
2022-11-29T16:56:12.479Z,101740.45
2022-11-29T16:59:17.129Z,101740.26
2022-11-29T17:01:31.636Z,101747.04
2022-11-29T17:04:00.780Z,101748.46
2022-11-29T17:06:30.158Z,101752.30
2022-11-29T17:08:59.677Z,101751.66
2022-11-29T17:11:27.883Z,101750.13
2022-11-29T17:13:56.144Z,101752.89
2022-11-29T17:16:24.921Z,101754.98
2022-11-29T17:18:54.398Z,101751.39
2022-11-29T17:21:28.543Z,101754.10
2022-11-29T17:23:57.829Z,101756.98
2022-11-29T17:26:25.934Z,101757.33
2022-11-29T17:28:54.142Z,101757.05
2022-11-29T17:31:26.264Z,101759.86
2022-11-29T17:33:55.354Z,101760.74
2022-11-29T17:36:25.001Z,101764.09
2022-11-29T17:38:53.941Z,101766.82
2022-11-29T17:41:24.568Z,101766.52
2022-11-29T17:43:55.931Z,101764.27
2022-11-29T17:46:24.268Z,101766.24
2022-11-29T17:48:52.914Z,101767.23
2022-11-29T17:54:12.733Z,101768.70
2022-11-29T17:56:41.214Z,101770.46
2022-11-29T17:59:09.405Z,101767.95
2022-11-29T18:01:38.769Z,101768.41
2022-11-29T18:04:08.468Z,101769.73
2022-11-29T18:06:39.545Z,101768.58
2022-11-29T18:09:10.510Z,101771.35
2022-11-29T18:11:47.612Z,101772.90
2022-11-29T18:14:24.208Z,101773.91
2022-11-29T18:16:56.594Z,101774.13
2022-11-29T18:19:27.322Z,101778.02
2022-11-29T18:21:55.489Z,101780.27
2022-11-29T18:24:23.561Z,101779.73
2022-11-29T18:26:51.602Z,101780.61
2022-11-29T18:29:20.665Z,101781.27
2022-11-29T18:31:48.663Z,101781.83
2022-11-29T18:34:17.256Z,101782.22
2022-11-29T18:36:47.687Z,101782.73
2022-11-29T18:39:20.607Z,101783.16
2022-11-29T18:41:51.730Z,101786.30
2022-11-29T18:44:22.007Z,101789.25
2022-11-29T18:46:50.830Z,101792.02
2022-11-29T18:49:19.576Z,101793.52
2022-11-29T18:51:50.610Z,101795.11
2022-11-29T18:54:23.031Z,101791.70
2022-11-29T18:56:54.068Z,101794.50
2022-11-29T18:59:24.762Z,101796.34
2022-11-29T19:01:54.358Z,101794.45
2022-11-29T19:04:24.050Z,101793.77
2022-11-29T19:06:53.119Z,101791.73
2022-11-29T19:09:24.482Z,101792.80
2022-11-29T19:11:53.874Z,101792.57
2022-11-29T19:14:22.395Z,101788.92
2022-11-29T19:16:51.118Z,101790.20
2022-11-29T19:19:24.402Z,101794.88
2022-11-29T19:21:54.101Z,101794.27
2022-11-29T19:24:23.263Z,101796.80
2022-11-29T19:26:56.900Z,101799.92
2022-11-29T19:29:25.246Z,101802.57
2022-11-29T19:31:55.581Z,101800.71
2022-11-29T19:34:24.443Z,101804.70
2022-11-29T19:36:53.537Z,101804.68
2022-11-29T19:39:23.573Z,101809.91
2022-11-29T19:41:58.413Z,101811.17
2022-11-29T19:44:29.982Z,101809.18
2022-11-29T19:46:59.809Z,101814.29
2022-11-29T19:49:28.215Z,101814.58
2022-11-29T19:51:56.711Z,101816.34
2022-11-29T19:54:24.916Z,101819.21
2022-11-29T19:56:56.393Z,101818.45
2022-11-29T19:59:26.489Z,101820.44
2022-11-29T20:01:56.263Z,101819.89
2022-11-29T20:04:24.815Z,101821.17
2022-11-29T20:06:54.992Z,101819.32
2022-11-29T20:09:27.718Z,101823.36
2022-11-29T20:11:57.353Z,101823.36
2022-11-29T20:14:30.056Z,101823.32
2022-11-29T20:16:58.368Z,101823.42
2022-11-29T20:19:26.561Z,101826.32
2022-11-29T20:21:55.553Z,101826.15
2022-11-29T20:24:24.344Z,101827.77
2022-11-29T20:26:54.573Z,101827.74
2022-11-29T20:29:28.173Z,101826.98
2022-11-29T20:31:56.986Z,101823.98
2022-11-29T20:34:26.939Z,101824.48
2022-11-29T20:37:32.040Z,101824.77
2022-11-29T20:40:02.394Z,101826.91
2022-11-29T20:42:52.455Z,101831.15
2022-11-29T20:45:21.227Z,101834.36
2022-11-29T20:48:19.502Z,101835.21
2022-11-29T20:50:56.625Z,101834.51
2022-11-29T20:53:32.529Z,101838.33
2022-11-29T20:56:00.760Z,101835.30
2022-11-29T20:58:29.312Z,101833.29
2022-11-29T21:00:58.194Z,101833.05
2022-11-29T21:03:28.066Z,101833.38
2022-11-29T21:05:57.620Z,101836.63
2022-11-29T21:08:26.638Z,101839.80
2022-11-29T21:10:58.048Z,101838.74
2022-11-29T21:13:26.282Z,101838.78
2022-11-29T21:15:55.816Z,101841.48
2022-11-29T21:18:27.056Z,101843.02
2022-11-29T21:21:46.296Z,101837.95
2022-11-29T21:24:29.170Z,101845.48
2022-11-29T21:26:57.281Z,101845.40
2022-11-29T21:29:25.603Z,101845.97
2022-11-29T21:31:54.351Z,101847.55
2022-11-29T21:34:22.488Z,101844.23
2022-11-29T21:36:56.808Z,101845.34
2022-11-29T21:39:31.640Z,101849.52
2022-11-29T21:41:59.702Z,101848.74
2022-11-29T21:44:27.654Z,101850.73
2022-11-29T21:46:55.672Z,101852.96
2022-11-29T21:49:23.675Z,101855.05
2022-11-29T21:51:51.657Z,101858.04
2022-11-29T21:54:19.661Z,101857.91
2022-11-29T21:56:47.668Z,101856.48
2022-11-29T21:59:15.649Z,101858.63
2022-11-29T22:01:43.882Z,101856.25
2022-11-29T22:04:11.848Z,101855.67
2022-11-29T22:06:40.240Z,101860.03
2022-11-29T22:09:08.838Z,101858.63
2022-11-29T22:11:37.262Z,101861.48
2022-11-29T22:14:18.978Z,101859.44
2022-11-29T22:16:52.034Z,101858.73
2022-11-29T22:19:27.270Z,101851.91
2022-11-29T22:21:57.926Z,101858.80
2022-11-29T22:24:28.646Z,101859.11
2022-11-29T22:26:57.882Z,101855.27
2022-11-29T22:29:26.044Z,101854.61
2022-11-29T22:31:55.880Z,101860.26
2022-11-29T22:34:27.163Z,101857.75
2022-11-29T22:36:55.902Z,101854.20
2022-11-29T22:39:24.278Z,101852.04
2022-11-29T22:41:54.610Z,101854.61
2022-11-29T22:44:24.203Z,101860.09
2022-11-29T22:46:52.561Z,101862.08
2022-11-29T22:49:20.571Z,101862.77
2022-11-29T22:51:49.933Z,101859.63
2022-11-29T22:54:18.028Z,101860.09
2022-11-29T22:56:46.798Z,101861.45
2022-11-29T22:59:14.614Z,101863.37
2022-11-29T23:01:42.965Z,101862.23
2022-11-29T23:04:12.526Z,101862.67
2022-11-29T23:06:43.748Z,101864.05
2022-11-29T23:09:22.578Z,101864.36
2022-11-29T23:11:54.686Z,101864.63
2022-11-29T23:14:25.019Z,101865.84
2022-11-29T23:16:53.082Z,101862.88
2022-11-29T23:19:21.583Z,101859.21
2022-11-29T23:21:49.496Z,101858.79
2022-11-29T23:24:17.239Z,101857.56
2022-11-29T23:26:46.687Z,101859.98
2022-11-29T23:29:19.362Z,101861.23
2022-11-29T23:31:49.360Z,101863.66
2022-11-29T23:34:17.389Z,101861.70
2022-11-29T23:36:49.790Z,101863.14
2022-11-29T23:39:21.477Z,101865.81
2022-11-29T23:41:50.170Z,101869.30
2022-11-29T23:44:17.925Z,101866.29
2022-11-29T23:46:46.131Z,101868.81
2022-11-29T23:49:14.139Z,101869.54
2022-11-29T23:51:42.926Z,101867.92
2022-11-29T23:54:10.787Z,101866.55
2022-11-29T23:56:38.878Z,101867.95
2022-11-29T23:59:06.675Z,101869.23
